createdAt,value
2022-10-17T00:01:41.715Z,38.60
2022-10-17T00:04:08.376Z,44.25
2022-10-17T00:06:35.349Z,44.08
2022-10-17T00:09:02.186Z,44.75
2022-10-17T00:11:28.800Z,44.10
2022-10-17T00:13:56.778Z,47.20
2022-10-17T00:16:33.514Z,44.30
2022-10-17T00:19:00.886Z,44.53
2022-10-17T00:21:27.545Z,50.90
2022-10-17T00:23:54.602Z,49.80
2022-10-17T00:26:21.249Z,60.22
2022-10-17T00:28:52.343Z,52.47
2022-10-17T00:31:20.643Z,53.03
2022-10-17T00:33:47.518Z,49.92
2022-10-17T00:36:17.731Z,52.15
2022-10-17T00:38:46.740Z,46.65
2022-10-17T00:41:17.026Z,47.67
2022-10-17T00:44:05.669Z,47.17
2022-10-17T00:46:39.636Z,45.72
2022-10-17T00:49:10.119Z,49.30
2022-10-17T00:52:10.572Z,50.85
2022-10-17T00:54:44.218Z,44.95
2022-10-17T00:57:11.607Z,47.05
2022-10-17T00:59:41.806Z,47.35
2022-10-17T01:02:17.730Z,42.83
2022-10-17T01:04:47.865Z,43.13
2022-10-17T01:07:14.489Z,46.78
2022-10-17T01:09:41.851Z,44.10
2022-10-17T01:12:31.735Z,45.78
2022-10-17T01:15:19.145Z,41.03
2022-10-17T01:18:07.169Z,46.50
2022-10-17T01:20:49.013Z,49.05
2022-10-17T01:23:41.607Z,52.55
2022-10-17T01:26:37.632Z,50.33
2022-10-17T01:29:06.929Z,56.90
2022-10-17T01:32:15.317Z,46.45
2022-10-17T01:35:09.089Z,49.70
2022-10-17T01:40:22.111Z,45.92
2022-10-17T01:42:56.984Z,45.35
2022-10-17T01:45:31.714Z,47.33
2022-10-17T01:48:02.755Z,45.03
2022-10-17T01:50:35.580Z,52.00
2022-10-17T01:53:11.837Z,43.00
2022-10-17T01:55:42.506Z,50.10
2022-10-17T01:58:17.078Z,48.58
2022-10-17T02:00:45.676Z,46.42
2022-10-17T02:03:19.009Z,53.15
2022-10-17T02:05:46.016Z,48.67
2022-10-17T02:08:13.353Z,57.22
2022-10-17T02:11:17.901Z,61.60
2022-10-17T02:13:53.638Z,53.40
2022-10-17T02:16:22.842Z,53.10
2022-10-17T02:19:16.691Z,53.15
2022-10-17T02:22:19.316Z,51.13
2022-10-17T02:25:03.844Z,50.30
2022-10-17T02:28:00.912Z,49.92
2022-10-17T02:33:29.414Z,53.80
2022-10-17T02:36:01.261Z,54.58
2022-10-17T02:38:30.143Z,51.38
2022-10-17T02:40:56.970Z,50.60
2022-10-17T02:43:24.013Z,52.10
2022-10-17T02:45:52.718Z,52.13
2022-10-17T02:48:32.560Z,54.60
2022-10-17T02:51:08.993Z,51.40
2022-10-17T02:53:52.379Z,43.63
2022-10-17T02:56:21.322Z,46.72
2022-10-17T02:58:53.894Z,47.10
2022-10-17T03:01:21.139Z,43.88
2022-10-17T03:03:47.903Z,46.35
2022-10-17T03:06:14.544Z,43.78
2022-10-17T03:08:41.098Z,50.58
2022-10-17T03:11:09.286Z,46.70
2022-10-17T03:13:38.993Z,46.22
2022-10-17T03:16:06.757Z,49.20
2022-10-17T03:18:33.383Z,54.65
2022-10-17T03:20:59.962Z,53.75
2022-10-17T03:23:26.548Z,48.78
2022-10-17T03:25:53.111Z,58.80
2022-10-17T03:28:19.680Z,56.85
2022-10-17T03:30:46.259Z,51.10
2022-10-17T03:33:12.812Z,61.45
2022-10-17T03:35:40.301Z,53.22
2022-10-17T03:38:07.022Z,49.60
2022-10-17T03:40:33.610Z,51.20
2022-10-17T03:43:00.199Z,49.70
2022-10-17T03:45:26.783Z,49.53
2022-10-17T03:47:53.351Z,51.28
2022-10-17T03:50:19.904Z,49.05
2022-10-17T03:52:48.518Z,56.67
2022-10-17T03:55:16.033Z,51.28
2022-10-17T03:57:45.368Z,49.20
2022-10-17T04:00:13.162Z,49.67
2022-10-17T04:02:39.761Z,49.92
2022-10-17T04:05:07.321Z,51.10
2022-10-17T04:07:37.314Z,51.03
2022-10-17T04:10:05.203Z,51.85
2022-10-17T04:12:31.933Z,59.92
2022-10-17T04:14:58.712Z,54.22
2022-10-17T04:17:25.283Z,55.60
2022-10-17T04:19:51.914Z,56.45
2022-10-17T04:22:18.537Z,57.97
2022-10-17T04:24:45.168Z,61.13
2022-10-17T04:27:11.812Z,54.72
2022-10-17T04:29:38.336Z,50.13
2022-10-17T04:32:05.038Z,54.63
2022-10-17T04:34:31.625Z,55.42
2022-10-17T04:36:58.188Z,59.97
2022-10-17T04:39:24.743Z,58.05
2022-10-17T04:41:51.347Z,54.88
2022-10-17T04:44:18.227Z,54.50
2022-10-17T04:46:44.846Z,50.90
2022-10-17T04:49:11.389Z,54.45
2022-10-17T04:51:38.556Z,53.13
2022-10-17T04:54:05.346Z,52.85
2022-10-17T04:56:31.999Z,52.03
2022-10-17T04:58:59.698Z,70.15
2022-10-17T05:01:27.170Z,56.03
2022-10-17T05:03:54.416Z,65.03
2022-10-17T05:06:23.906Z,61.00
2022-10-17T05:08:50.617Z,58.03
2022-10-17T05:11:26.022Z,55.08
2022-10-17T05:14:00.831Z,59.95
2022-10-17T05:16:28.427Z,58.53
2022-10-17T05:18:57.286Z,56.63
2022-10-17T05:21:25.687Z,54.00
2022-10-17T05:23:52.689Z,52.83
2022-10-17T05:26:19.816Z,53.30
2022-10-17T05:28:46.583Z,51.22
2022-10-17T05:31:13.434Z,59.45
2022-10-17T05:33:40.274Z,55.78
2022-10-17T05:36:07.735Z,52.20
2022-10-17T05:38:34.487Z,53.72
2022-10-17T05:41:03.271Z,51.83
2022-10-17T05:43:31.061Z,53.15
2022-10-17T05:45:58.008Z,46.38
2022-10-17T05:48:25.432Z,53.00
2022-10-17T05:50:59.446Z,48.17
2022-10-17T05:53:26.454Z,53.35
2022-10-17T05:56:01.314Z,55.65
2022-10-17T06:01:15.118Z,51.88
2022-10-17T06:03:41.721Z,54.85
2022-10-17T06:06:13.136Z,51.97
2022-10-17T06:08:39.784Z,56.75
2022-10-17T06:11:09.873Z,52.60
2022-10-17T06:13:38.029Z,57.65
2022-10-17T06:16:04.930Z,58.22
2022-10-17T06:18:32.383Z,60.22
2022-10-17T06:21:07.034Z,63.28
2022-10-17T06:23:33.981Z,51.67
2022-10-17T06:26:01.938Z,54.90
2022-10-17T06:28:29.009Z,53.28
2022-10-17T06:30:55.973Z,55.17
2022-10-17T06:33:23.481Z,48.67
2022-10-17T06:35:57.026Z,40.53
2022-10-17T06:38:23.660Z,37.42
2022-10-17T06:40:50.249Z,39.28
2022-10-17T06:43:16.797Z,34.80
2022-10-17T06:45:45.696Z,38.55
2022-10-17T06:48:12.666Z,33.53
2022-10-17T06:50:39.500Z,29.50
2022-10-17T06:53:06.106Z,28.38
2022-10-17T06:55:33.027Z,32.47
2022-10-17T06:57:59.612Z,29.73
2022-10-17T07:00:26.950Z,27.92
2022-10-17T07:02:53.560Z,24.48
2022-10-17T07:05:20.220Z,25.10
2022-10-17T07:07:48.586Z,23.98
2022-10-17T07:10:18.468Z,23.08
2022-10-17T07:12:45.981Z,26.10
2022-10-17T07:15:13.326Z,24.73
2022-10-17T07:17:40.201Z,21.58
2022-10-17T07:20:07.608Z,23.15
2022-10-17T07:22:34.259Z,24.23
2022-10-17T07:25:00.820Z,24.63
2022-10-17T07:27:27.913Z,21.58
2022-10-17T07:29:54.758Z,21.00
2022-10-17T07:32:21.352Z,23.55
2022-10-17T07:34:48.931Z,20.30
2022-10-17T07:37:15.567Z,20.48
2022-10-17T07:39:42.124Z,21.15
2022-10-17T07:42:09.014Z,20.38
2022-10-17T07:44:35.929Z,20.45
2022-10-17T07:47:02.706Z,23.30
2022-10-17T07:49:29.514Z,20.52
2022-10-17T07:51:56.172Z,19.98
2022-10-17T07:54:23.157Z,20.58
2022-10-17T07:56:50.917Z,19.38
2022-10-17T07:59:20.368Z,20.58
2022-10-17T08:01:47.382Z,21.13
2022-10-17T08:04:16.947Z,18.58
2022-10-17T08:06:43.614Z,20.70
2022-10-17T08:09:10.183Z,15.55
2022-10-17T08:11:37.356Z,24.38
2022-10-17T08:14:04.110Z,17.90
2022-10-17T08:16:31.145Z,20.75
2022-10-17T08:18:57.860Z,18.40
2022-10-17T08:21:24.545Z,19.13
2022-10-17T08:23:51.187Z,23.77
2022-10-17T08:26:20.122Z,17.92
2022-10-17T08:28:47.869Z,20.77
2022-10-17T08:31:19.768Z,13.43
2022-10-17T08:33:48.218Z,18.10
2022-10-17T08:36:17.834Z,34.13
2022-10-17T08:38:47.959Z,17.23
2022-10-17T08:41:47.523Z,20.20
2022-10-17T08:44:33.379Z,16.08
2022-10-17T08:49:55.899Z,19.88
2022-10-17T08:52:43.096Z,16.50
2022-10-17T08:55:29.582Z,20.23
2022-10-17T08:57:56.269Z,16.30
2022-10-17T09:00:22.989Z,18.35
2022-10-17T09:03:32.781Z,17.80
2022-10-17T09:06:15.112Z,17.20
2022-10-17T09:08:55.445Z,16.05
2022-10-17T09:12:13.034Z,19.10
2022-10-17T09:15:03.107Z,18.40
2022-10-17T09:17:53.492Z,18.00
2022-10-17T09:20:28.117Z,18.98
2022-10-17T09:23:02.509Z,18.35
2022-10-17T09:25:39.845Z,14.48
2022-10-17T09:28:24.249Z,16.38
2022-10-17T09:30:59.721Z,17.17
2022-10-17T09:36:18.007Z,16.13
2022-10-17T09:38:56.243Z,11.85
2022-10-17T09:41:47.453Z,16.75
2022-10-17T09:44:33.164Z,13.95
2022-10-17T09:47:17.994Z,16.73
2022-10-17T09:49:47.485Z,15.98
2022-10-17T09:52:19.234Z,17.52
2022-10-17T09:54:49.299Z,18.55
2022-10-17T09:57:18.132Z,15.55
2022-10-17T09:59:48.846Z,15.70
2022-10-17T10:02:25.103Z,16.02
2022-10-17T10:05:03.645Z,17.80
2022-10-17T10:07:39.214Z,17.20
2022-10-17T10:10:22.660Z,10.98
2022-10-17T10:13:14.143Z,14.13
2022-10-17T10:15:44.692Z,17.20
2022-10-17T10:18:26.653Z,14.57
2022-10-17T10:21:16.057Z,14.13
2022-10-17T10:23:45.482Z,12.68
2022-10-17T10:26:23.569Z,17.20
2022-10-17T10:28:58.827Z,15.00
2022-10-17T10:31:42.832Z,15.70
2022-10-17T10:34:20.651Z,15.13
2022-10-17T10:37:17.242Z,17.13
2022-10-17T10:39:59.428Z,21.33
2022-10-17T10:42:39.535Z,13.88
2022-10-17T10:45:35.991Z,16.35
2022-10-17T10:48:26.761Z,15.35
2022-10-17T10:51:04.505Z,13.27
2022-10-17T10:53:44.365Z,17.85
2022-10-17T10:56:49.875Z,15.52
2022-10-17T10:59:43.305Z,12.30
2022-10-17T11:02:25.350Z,11.63
2022-10-17T11:05:13.767Z,12.15
2022-10-17T11:08:08.068Z,15.75
2022-10-17T11:10:41.448Z,14.35
2022-10-17T11:13:18.123Z,11.48
2022-10-17T11:15:51.621Z,13.30
2022-10-17T11:18:18.113Z,11.43
2022-10-17T11:21:13.415Z,12.95
2022-10-17T11:23:48.824Z,11.93
2022-10-17T11:26:28.117Z,13.25
2022-10-17T11:28:56.487Z,10.05
2022-10-17T11:31:26.978Z,13.57
2022-10-17T11:34:03.881Z,13.30
2022-10-17T11:36:34.720Z,9.95
2022-10-17T11:39:09.186Z,12.55
2022-10-17T11:42:03.242Z,11.13
2022-10-17T11:44:42.953Z,12.40
2022-10-17T11:47:28.399Z,13.95
2022-10-17T11:52:59.936Z,14.20
2022-10-17T11:55:29.561Z,11.38
2022-10-17T11:58:14.458Z,14.93
2022-10-17T12:00:51.485Z,15.35
2022-10-17T12:03:18.036Z,13.15
2022-10-17T12:05:58.978Z,14.40
2022-10-17T12:08:44.511Z,13.27
2022-10-17T12:11:45.906Z,9.27
2022-10-17T12:14:36.118Z,14.07
2022-10-17T12:17:04.346Z,8.95
2022-10-17T12:19:36.702Z,13.68
2022-10-17T12:22:41.649Z,13.95
2022-10-17T12:25:19.137Z,16.67
2022-10-17T12:27:48.623Z,12.68
2022-10-17T12:30:19.977Z,13.32
2022-10-17T12:33:07.952Z,13.18
2022-10-17T12:35:37.199Z,14.75
2022-10-17T12:38:21.079Z,10.98
2022-10-17T12:41:07.869Z,14.95
2022-10-17T12:43:44.763Z,12.77
2022-10-17T12:46:12.342Z,10.77
2022-10-17T12:48:39.064Z,13.27
2022-10-17T12:54:16.641Z,10.25
2022-10-17T12:56:48.120Z,8.43
2022-10-17T12:59:22.552Z,15.20
2022-10-17T13:01:55.087Z,11.32
2022-10-17T13:04:22.614Z,11.05
2022-10-17T13:06:54.471Z,7.82
2022-10-17T13:09:32.706Z,10.05
2022-10-17T13:12:03.750Z,11.95
2022-10-17T13:14:33.371Z,9.07
2022-10-17T13:17:04.241Z,9.68
2022-10-17T13:19:40.144Z,10.32
2022-10-17T13:22:21.322Z,19.70
2022-10-17T13:24:49.027Z,10.90
2022-10-17T13:27:29.802Z,12.93
2022-10-17T13:29:58.354Z,13.20
2022-10-17T13:32:27.269Z,9.73
2022-10-17T13:35:07.462Z,9.07
2022-10-17T13:37:35.777Z,13.00
2022-10-17T13:40:17.520Z,8.48
2022-10-17T13:42:52.410Z,14.25
2022-10-17T13:45:34.407Z,12.43
2022-10-17T13:48:08.268Z,10.48
2022-10-17T13:50:45.034Z,10.18
2022-10-17T13:53:17.461Z,17.27
2022-10-17T13:56:26.797Z,14.68
2022-10-17T13:58:57.736Z,11.68
2022-10-17T14:01:30.872Z,14.50
2022-10-17T14:04:08.861Z,11.45
2022-10-17T14:06:45.200Z,10.10
2022-10-17T14:09:26.706Z,14.38
2022-10-17T14:12:02.444Z,12.50
2022-10-17T14:14:46.064Z,10.60
2022-10-17T14:17:28.819Z,13.00
2022-10-17T14:20:34.522Z,8.30
2022-10-17T14:23:10.811Z,11.27
2022-10-17T14:25:43.283Z,8.82
2022-10-17T14:28:13.982Z,10.90
2022-10-17T14:31:01.690Z,11.43
2022-10-17T14:33:32.102Z,10.93
2022-10-17T14:36:01.970Z,10.05
2022-10-17T14:38:30.086Z,11.30
2022-10-17T14:41:37.347Z,10.50
2022-10-17T14:44:07.537Z,9.50
2022-10-17T14:46:37.962Z,11.45
2022-10-17T14:49:21.802Z,11.10
2022-10-17T14:52:23.683Z,13.35
2022-10-17T14:54:50.420Z,12.00
2022-10-17T14:57:27.477Z,12.38
2022-10-17T14:59:56.382Z,10.75
2022-10-17T15:02:29.232Z,11.50
2022-10-17T15:04:56.284Z,11.65
2022-10-17T15:07:24.003Z,10.68
2022-10-17T15:09:52.884Z,11.70
2022-10-17T15:12:25.296Z,11.23
2022-10-17T15:14:53.317Z,8.38
2022-10-17T15:17:30.236Z,17.17
2022-10-17T15:19:59.404Z,11.15
2022-10-17T15:22:26.645Z,9.63
2022-10-17T15:24:53.492Z,11.90
2022-10-17T15:27:25.955Z,12.98
2022-10-17T15:29:53.208Z,9.20
2022-10-17T15:32:19.917Z,10.05
2022-10-17T15:34:46.697Z,11.35
2022-10-17T15:37:18.953Z,10.15
2022-10-17T15:39:53.361Z,7.68
2022-10-17T15:42:23.207Z,12.27
2022-10-17T15:44:50.471Z,11.30
2022-10-17T15:47:23.540Z,12.77
2022-10-17T15:49:50.400Z,10.77
2022-10-17T15:52:17.031Z,12.20
2022-10-17T15:54:43.613Z,12.00
2022-10-17T15:57:18.260Z,11.82
2022-10-17T15:59:47.113Z,12.23
2022-10-17T16:02:15.821Z,11.18
2022-10-17T16:04:43.380Z,11.85
2022-10-17T16:07:10.847Z,11.45
2022-10-17T16:09:37.613Z,11.32
2022-10-17T16:12:06.411Z,9.45
2022-10-17T16:14:33.251Z,11.07
2022-10-17T16:17:00.397Z,15.30
2022-10-17T16:19:30.107Z,14.15
2022-10-17T16:21:59.670Z,6.38
2022-10-17T16:24:28.825Z,12.10
2022-10-17T16:26:55.395Z,8.60
2022-10-17T16:29:21.982Z,11.10
2022-10-17T16:31:48.571Z,12.75
2022-10-17T16:34:16.021Z,18.38
2022-10-17T16:36:42.947Z,11.80
2022-10-17T16:39:09.802Z,11.45
2022-10-17T16:41:38.365Z,16.83
2022-10-17T16:44:10.863Z,9.90
2022-10-17T16:46:37.795Z,13.25
2022-10-17T16:49:07.791Z,13.45
2022-10-17T16:51:35.990Z,11.65
2022-10-17T16:54:04.662Z,12.52
2022-10-17T16:56:32.919Z,11.13
2022-10-17T16:59:00.813Z,12.57
2022-10-17T17:01:29.429Z,12.55
2022-10-17T17:03:56.959Z,10.35
2022-10-17T17:06:28.379Z,12.65
2022-10-17T17:08:56.456Z,11.25
2022-10-17T17:11:25.822Z,12.20
2022-10-17T17:13:54.803Z,10.38
2022-10-17T17:16:23.449Z,14.10
2022-10-17T17:18:55.410Z,10.93
2022-10-17T17:21:22.493Z,11.63
2022-10-17T17:23:49.153Z,11.85
2022-10-17T17:26:18.583Z,10.18
2022-10-17T17:28:45.876Z,13.70
2022-10-17T17:31:23.878Z,11.07
2022-10-17T17:33:51.823Z,10.10
2022-10-17T17:36:22.732Z,11.02
2022-10-17T17:38:51.301Z,11.40
2022-10-17T17:41:20.215Z,11.13
2022-10-17T17:43:48.049Z,10.00
2022-10-17T17:46:17.083Z,13.27
2022-10-17T17:48:44.900Z,13.13
2022-10-17T17:51:13.743Z,9.75
2022-10-17T17:53:40.492Z,10.30
2022-10-17T17:56:14.294Z,10.82
2022-10-17T17:58:45.884Z,14.80
2022-10-17T18:01:18.343Z,13.07
2022-10-17T18:03:45.850Z,9.40
2022-10-17T18:06:12.901Z,12.25
2022-10-17T18:08:40.163Z,14.05
2022-10-17T18:11:06.747Z,10.73
2022-10-17T18:13:33.324Z,9.57
2022-10-17T18:16:01.621Z,12.48
2022-10-17T18:18:30.632Z,10.43
2022-10-17T18:21:00.945Z,11.75
2022-10-17T18:23:27.553Z,12.35
2022-10-17T18:25:58.480Z,15.43
2022-10-17T18:28:25.270Z,10.60
2022-10-17T18:30:52.485Z,13.43
2022-10-17T18:33:19.127Z,12.55
2022-10-17T18:35:46.087Z,12.48
2022-10-17T18:38:12.857Z,10.40
2022-10-17T18:40:39.499Z,14.65
2022-10-17T18:43:06.524Z,11.70
2022-10-17T18:45:33.525Z,10.95
2022-10-17T18:48:01.611Z,13.70
2022-10-17T18:50:29.582Z,12.32
2022-10-17T18:52:56.242Z,12.10
2022-10-17T18:55:22.885Z,10.90
2022-10-17T18:57:50.498Z,12.82
2022-10-17T19:00:17.618Z,12.73
2022-10-17T19:02:49.501Z,14.70
2022-10-17T19:05:16.145Z,13.73
2022-10-17T19:07:42.715Z,13.55
2022-10-17T19:10:09.547Z,15.77
2022-10-17T19:12:37.146Z,11.63
2022-10-17T19:15:04.162Z,12.15
2022-10-17T19:17:31.150Z,12.43
2022-10-17T19:19:58.303Z,13.27
2022-10-17T19:22:24.947Z,16.73
2022-10-17T19:24:51.624Z,12.73
2022-10-17T19:27:20.866Z,17.75
2022-10-17T19:29:47.578Z,15.20
2022-10-17T19:32:17.895Z,13.70
2022-10-17T19:34:47.389Z,10.68
2022-10-17T19:37:14.814Z,12.23
2022-10-17T19:39:41.504Z,19.25
2022-10-17T19:42:09.551Z,13.68
2022-10-17T19:44:36.279Z,12.98
2022-10-17T19:47:02.869Z,19.50
2022-10-17T19:49:29.582Z,11.93
2022-10-17T19:52:03.856Z,12.65
2022-10-17T19:54:30.567Z,12.45
2022-10-17T19:56:57.529Z,15.43
2022-10-17T20:01:53.352Z,12.93
2022-10-17T20:04:22.268Z,13.90
2022-10-17T20:06:49.014Z,19.52
2022-10-17T20:09:17.245Z,19.55
2022-10-17T20:11:44.418Z,12.38
2022-10-17T20:14:11.203Z,13.57
2022-10-17T20:16:39.594Z,16.08
2022-10-17T20:19:11.385Z,16.13
2022-10-17T20:21:40.944Z,11.40
2022-10-17T20:24:11.129Z,15.43
2022-10-17T20:26:39.441Z,14.05
2022-10-17T20:29:13.328Z,13.25
2022-10-17T20:31:41.439Z,12.55
2022-10-17T20:34:12.007Z,12.45
2022-10-17T20:36:38.655Z,15.10
2022-10-17T20:39:06.560Z,15.40
2022-10-17T20:41:33.806Z,15.13
2022-10-17T20:44:00.455Z,15.30
2022-10-17T20:46:36.988Z,13.50
2022-10-17T20:49:07.137Z,15.68
2022-10-17T20:51:34.745Z,9.60
2022-10-17T20:54:02.939Z,13.27
2022-10-17T20:56:31.482Z,13.10
2022-10-17T20:59:00.566Z,15.85
2022-10-17T21:01:28.907Z,12.50
2022-10-17T21:03:58.901Z,12.95
2022-10-17T21:06:27.977Z,17.30
2022-10-17T21:08:56.069Z,17.55
2022-10-17T21:11:25.238Z,14.90
2022-10-17T21:14:18.398Z,16.73
2022-10-17T21:16:46.285Z,15.77
2022-10-17T21:19:13.951Z,17.23
2022-10-17T21:21:44.199Z,13.90
2022-10-17T21:24:14.634Z,15.65
2022-10-17T21:26:42.720Z,15.07
2022-10-17T21:29:12.070Z,15.88
2022-10-17T21:31:42.531Z,15.15
2022-10-17T21:34:18.917Z,16.42
2022-10-17T21:36:46.009Z,15.38
2022-10-17T21:39:14.455Z,18.65
2022-10-17T21:41:42.219Z,15.95
2022-10-17T21:44:14.751Z,15.50
2022-10-17T21:46:41.603Z,7.63
2022-10-17T21:49:10.885Z,13.18
2022-10-17T21:51:37.855Z,12.27
2022-10-17T21:54:06.055Z,10.43
2022-10-17T21:56:34.866Z,14.60
2022-10-17T21:59:01.700Z,15.40
2022-10-17T22:01:34.900Z,12.93
2022-10-17T22:04:04.673Z,16.15
2022-10-17T22:06:39.739Z,13.02
2022-10-17T22:09:14.450Z,13.13
2022-10-17T22:11:41.785Z,15.20
2022-10-17T22:14:12.278Z,13.68
2022-10-17T22:16:39.318Z,13.68
2022-10-17T22:19:07.443Z,16.60
2022-10-17T22:21:36.129Z,13.57
2022-10-17T22:24:06.003Z,13.07
2022-10-17T22:26:35.107Z,14.98
2022-10-17T22:29:02.061Z,12.55
2022-10-17T22:31:28.929Z,14.13
2022-10-17T22:33:57.093Z,11.40
2022-10-17T22:36:24.267Z,14.73
2022-10-17T22:38:50.986Z,11.57
2022-10-17T22:41:17.609Z,11.35
2022-10-17T22:43:44.684Z,13.55
2022-10-17T22:46:13.388Z,12.43
2022-10-17T22:48:42.753Z,14.80
2022-10-17T22:51:09.419Z,13.93
2022-10-17T22:53:37.462Z,15.52
2022-10-17T22:56:07.361Z,14.18
2022-10-17T22:58:35.682Z,19.67
2022-10-17T23:01:03.247Z,16.23
2022-10-17T23:03:30.669Z,15.52
2022-10-17T23:05:57.821Z,14.57
2022-10-17T23:08:25.360Z,17.75
2022-10-17T23:10:52.052Z,14.10
2022-10-17T23:13:21.397Z,18.10
2022-10-17T23:15:55.721Z,15.32
2022-10-17T23:18:23.551Z,15.93
2022-10-17T23:20:51.050Z,12.70
2022-10-17T23:23:18.654Z,14.25
2022-10-17T23:25:46.042Z,13.13
2022-10-17T23:28:12.818Z,15.18
2022-10-17T23:30:39.630Z,17.27
2022-10-17T23:33:09.314Z,15.15
2022-10-17T23:35:36.204Z,14.45
2022-10-17T23:38:03.378Z,15.48
2022-10-17T23:40:30.334Z,15.88
2022-10-17T23:42:56.954Z,21.95
2022-10-17T23:45:23.785Z,12.43
2022-10-17T23:47:50.377Z,16.60
2022-10-17T23:50:17.085Z,14.52
2022-10-17T23:52:43.798Z,14.30
2022-10-17T23:55:11.156Z,15.18
2022-10-17T23:57:37.775Z,15.82
